Worton, Maryland
Current Conditions -  °F | °C
As of 7:50 PM on Friday 19 Dec 2014 (Local Time) from KAPG Reporting Station
Clear Clear  
Wind Chill: 31°   Ceiling: Unl
Heat Index: 36°   Visibility: 7mi
Dew Point: 25°   Wind: 6mph
Humidity: 65%   Direction: 300°WNW
Pressure: 30.21"   Gusts: NA
Location:  39.27°N, 76.09°W
Report Text: KAPG 200050Z 30005KT 7SM SKC 02/M04 A3021 RMK LAST
Loading
Personal Weather Stations






























Interactive Weather Map New forecast layout! Learn more

10-Day Weather Forecast

Advertisements
Track Severe Weather on mobile